Gale Warning
Issued at: 5:00 PM TODAY , 28 July 2017
Gale Warning # 2
For: strong to gale force southwesterly winds enhanced typhoon "gorio."

Gale Warning in PDF file




Weather Advisory
As of today, there is no weather Advisory issued



Monthly Climate Assessment and Outlook

Issued: 05 July 2017

Monthly Rainfall Forecast
RAINFALL FORECAST  (July - December 2017) 
UPDATED: 04 July 2017 (next update August 2017)


Regional Rainfall Forecast
Issued: 05 July 2017
Valid for: July - December 2017
Farm Weather Forecast and Advisories
ISSUED              : 8AM, FRIDAY, JULY 28, 2017
VALID UNTIL      :  8AM, SATURDAY, JULY 29, 2017
FWFA:  N0. 17-210


Ten-Day Regional Agri-Weather Information
DEKAD NO. 21 July 21-31, 2017

PHILIPPINE AGRI-WEATHER FORECAST
The weather systems that will affect the whole country are southwest monsoon, intertropical convergence zone (ITCZ), low pressure area (LPA) and tropical cyclone.
Seasonal Climate Outlook
Issued:  06 July 2017
FOR July - December 2017
PDF 




Astronomical Diary
Issue for July 2017
Stargazers will be having a nice time watching the night sky...




   PAGASA webmail  Learning Tools  Bidding 

  Training Activities  Vacancy  Research-and-Development

  Engineering  faqupdate  Publications 
TAF RPLL

281100Z 2812/2918 24010KT 9000 SCT022 OVC100 TX29/2906Z TN26/2821Z TEMPO 2812/2818 21007KT 7000 –RA RA SCT020 OVC080 TEMPO 2818/2824 22008KT 8000 –TSRA SCT022 OVC080=

TAF RPVM

281100Z 2812/2918 24006KT 9999 FEW020 SCT100 BKN250 TEMPO 2812/2818 22005KT 9000 –SHRA FEW018CB SCT020 BKN300 TEMPO 2818/2824 23007KT FEW020 BKN100 =

TAF RPLC

281100Z 2812/2918 14005KT 8000 -RA SCT018 OVC090 TX28/2906Z TN24/2821Z TEMPO 2812/2818 15006KT 7000 –RA RA SCT018 OVC080 TEMPO 2818/2824 21004KT 8000 -SHRA SCT015 OVC090=

TAF RPLB

281100Z 2812/2912 22018KT 8000 -RA SCT018 OVC080 TX29/2906Z TN24/2821Z TEMPO 2812/2818 22023G33KT 5000 -TSRA  FEW016CB  BKN018 OVC070=

TAF RPLI

281100Z 2812/2912 18010KT 9999 FEW019 BKN100 TEMPO 2812/2818 15008G20KT 7000 -TSRA SCT018CB OVC090=

TAF RPVP

281100Z 2812/2912 19006KT 9999 FEW020 SCT080 BKN240 TEMPO 2812/2818 18004KT 9000 –SHRA FEW017CB BKN080=

TAF RPVD

281100Z 2812/2912 24008KT 9999 FEW015 SCT220 TEMPO 2812/2818 22004KT FEW015CB SCT080 BKN220=

TAF RPMR

281100Z 2812/2912 32004KT 9999 FEW018 SCT250 TEMPO 2812/2818 14003KT 9000 –SHRA FEW018CB SCT020 BKN080=

TAF RPMD

281100Z 2812/2912 18006KT 9999 FEW016 SCT090 BKN290 TEMPO 2812/2818 16004KT 9000 TS -SHRA FEW015CB BKN090=

TAF RPMZ

281100Z 2812/2912 18004KT 9999 FEW018 SCT100 BKN300 TEMPO 2812/2818 16002KT FEW017CB BKN100=

RPLL FORECAST TAKE-OFF CONDITION
TIME

(UTC)

WIND

(dddffKT)

TEMP

(°C)

QNH

(hPa)

TIME

(UTC)

WIND

(dddffKT)

TEMP

(°C)

QNH

(hPa)

1200

24004KT

27.5

1007.0

1600

24007KT

26.0

1007.0

1300

22005KT

27.5

1007.0

1700

23009KT

26.0

1006.0

1400

21004KT

27.0

1007.0

1800

22008KT

26.0

1006.0

1500

21006KT

27.0

1007.0

1900

21003KT

26.0

1005.0

ISSUED AT NAIA AMSS-WD/PAGASA-DOST FOR 1100UTC 27 JULY 2017

PREPARED BY:              CHH                CHECKED BY:   AYN/EBM
MDSI v2

PUBLIC WARNING 


It has come to the attention of the Office of the Administrator of PAGASA that a certain person has been using the name of Dr. Vicente B. Malano to solicit money from the contractors of PAGASA.

Dr. Malano wishes to inform the public that he has not authorized anyone to solicit money on his behalf and to warn everyone against dealing with unscrupulous activities of certain individuals.



payong pagasa on android The latest version of the official PAGASA app can now be downloaded on Google play store

Weather Division is now  ISO 9001:2008 Certified
Proof has been furnished by means of an audit that the requirements of ISO 9001:2008 are met.

Read more ...